sensor_id;sensor_type;location;lat;lon;timestamp;temperature;humidity
60027;DHT22;45891;53.006;6.512;2023-07-31T00:00:36;15.60;99.90
60027;DHT22;45891;53.006;6.512;2023-07-31T00:03:02;15.60;99.90
60027;DHT22;45891;53.006;6.512;2023-07-31T00:05:28;15.60;99.90
60027;DHT22;45891;53.006;6.512;2023-07-31T00:07:54;15.50;99.90
60027;DHT22;45891;53.006;6.512;2023-07-31T00:10:20;15.50;99.90
60027;DHT22;45891;53.006;6.512;2023-07-31T00:12:47;15.50;99.90
60027;DHT22;45891;53.006;6.512;2023-07-31T00:15:14;15.50;99.90
60027;DHT22;45891;53.006;6.512;2023-07-31T00:17:40;15.40;99.90
60027;DHT22;45891;53.006;6.512;2023-07-31T00:20:06;15.40;99.90
60027;DHT22;45891;53.006;6.512;2023-07-31T00:22:32;15.30;99.90
60027;DHT22;45891;53.006;6.512;2023-07-31T00:24:59;15.30;99.90
60027;DHT22;45891;53.006;6.512;2023-07-31T00:27:25;15.30;99.90
60027;DHT22;45891;53.006;6.512;2023-07-31T00:29:51;15.30;99.90
60027;DHT22;45891;53.006;6.512;2023-07-31T00:32:18;15.30;99.90
60027;DHT22;45891;53.006;6.512;2023-07-31T00:34:44;15.20;99.90
60027;DHT22;45891;53.006;6.512;2023-07-31T00:37:10;15.30;99.90
60027;DHT22;45891;53.006;6.512;2023-07-31T00:39:36;15.20;99.90
60027;DHT22;45891;53.006;6.512;2023-07-31T00:42:02;15.20;99.90
60027;DHT22;45891;53.006;6.512;2023-07-31T00:44:29;15.20;99.90
60027;DHT22;45891;53.006;6.512;2023-07-31T00:46:56;15.20;99.90
60027;DHT22;45891;53.006;6.512;2023-07-31T00:49:22;15.20;99.90
60027;DHT22;45891;53.006;6.512;2023-07-31T00:51:49;15.10;99.90
60027;DHT22;45891;53.006;6.512;2023-07-31T00:54:15;15.10;99.90
60027;DHT22;45891;53.006;6.512;2023-07-31T00:56:41;15.10;99.90
60027;DHT22;45891;53.006;6.512;2023-07-31T00:59:10;15.10;99.90
60027;DHT22;45891;53.006;6.512;2023-07-31T01:01:36;15.10;99.90
60027;DHT22;45891;53.006;6.512;2023-07-31T01:04:03;15.10;99.90
60027;DHT22;45891;53.006;6.512;2023-07-31T01:09:23;15.10;99.90
60027;DHT22;45891;53.006;6.512;2023-07-31T01:11:57;15.10;99.90
60027;DHT22;45891;53.006;6.512;2023-07-31T01:14:26;15.00;99.90
60027;DHT22;45891;53.006;6.512;2023-07-31T01:16:52;15.00;99.90
60027;DHT22;45891;53.006;6.512;2023-07-31T01:19:21;15.10;99.90
60027;DHT22;45891;53.006;6.512;2023-07-31T01:25:43;15.00;99.90
60027;DHT22;45891;53.006;6.512;2023-07-31T01:28:37;15.00;99.90
60027;DHT22;45891;53.006;6.512;2023-07-31T01:31:07;15.00;99.90
60027;DHT22;45891;53.006;6.512;2023-07-31T01:33:36;15.00;99.90
60027;DHT22;45891;53.006;6.512;2023-07-31T01:36:03;15.00;99.90
60027;DHT22;45891;53.006;6.512;2023-07-31T01:38:30;15.00;99.90
60027;DHT22;45891;53.006;6.512;2023-07-31T01:40:56;15.00;99.90
60027;DHT22;45891;53.006;6.512;2023-07-31T01:43:22;15.00;99.90
60027;DHT22;45891;53.006;6.512;2023-07-31T01:45:49;15.00;99.90
60027;DHT22;45891;53.006;6.512;2023-07-31T01:48:15;15.00;99.90
60027;DHT22;45891;53.006;6.512;2023-07-31T01:50:41;15.00;99.90
60027;DHT22;45891;53.006;6.512;2023-07-31T01:53:07;15.00;99.90
60027;DHT22;45891;53.006;6.512;2023-07-31T01:55:33;15.00;99.90
60027;DHT22;45891;53.006;6.512;2023-07-31T01:57:59;15.00;99.90
60027;DHT22;45891;53.006;6.512;2023-07-31T02:00:25;15.00;99.90
60027;DHT22;45891;53.006;6.512;2023-07-31T02:02:51;15.00;99.90
60027;DHT22;45891;53.006;6.512;2023-07-31T02:05:17;15.00;99.90
60027;DHT22;45891;53.006;6.512;2023-07-31T02:07:43;15.00;99.90
60027;DHT22;45891;53.006;6.512;2023-07-31T02:10:09;15.00;99.90
60027;DHT22;45891;53.006;6.512;2023-07-31T02:12:36;15.00;99.90
60027;DHT22;45891;53.006;6.512;2023-07-31T02:15:02;15.00;99.90
60027;DHT22;45891;53.006;6.512;2023-07-31T02:17:28;15.00;99.90
60027;DHT22;45891;53.006;6.512;2023-07-31T02:19:55;15.00;99.90
60027;DHT22;45891;53.006;6.512;2023-07-31T02:22:21;15.00;99.90
60027;DHT22;45891;53.006;6.512;2023-07-31T02:24:47;15.00;99.90
60027;DHT22;45891;53.006;6.512;2023-07-31T02:27:13;14.90;99.90
60027;DHT22;45891;53.006;6.512;2023-07-31T02:29:39;14.90;99.90
60027;DHT22;45891;53.006;6.512;2023-07-31T02:32:06;15.00;99.90
60027;DHT22;45891;53.006;6.512;2023-07-31T02:34:32;15.00;99.90
60027;DHT22;45891;53.006;6.512;2023-07-31T02:36:58;15.00;99.90
60027;DHT22;45891;53.006;6.512;2023-07-31T02:39:24;15.00;99.90
60027;DHT22;45891;53.006;6.512;2023-07-31T02:41:50;15.00;99.90
60027;DHT22;45891;53.006;6.512;2023-07-31T02:44:16;15.00;99.90
60027;DHT22;45891;53.006;6.512;2023-07-31T02:46:42;15.00;99.90
60027;DHT22;45891;53.006;6.512;2023-07-31T02:49:08;15.00;99.90
60027;DHT22;45891;53.006;6.512;2023-07-31T02:51:34;15.10;99.90
60027;DHT22;45891;53.006;6.512;2023-07-31T02:54:00;15.10;99.90
60027;DHT22;45891;53.006;6.512;2023-07-31T02:56:26;15.10;99.90
60027;DHT22;45891;53.006;6.512;2023-07-31T02:58:52;15.10;99.90
60027;DHT22;45891;53.006;6.512;2023-07-31T03:01:18;15.10;99.90
60027;DHT22;45891;53.006;6.512;2023-07-31T03:03:44;15.20;99.90
60027;DHT22;45891;53.006;6.512;2023-07-31T03:06:11;15.20;99.90
60027;DHT22;45891;53.006;6.512;2023-07-31T03:08:37;15.20;99.90
60027;DHT22;45891;53.006;6.512;2023-07-31T03:11:03;15.20;99.90
60027;DHT22;45891;53.006;6.512;2023-07-31T03:13:29;15.20;99.90
60027;DHT22;45891;53.006;6.512;2023-07-31T03:15:55;15.20;99.90
60027;DHT22;45891;53.006;6.512;2023-07-31T03:18:21;15.20;99.90
60027;DHT22;45891;53.006;6.512;2023-07-31T03:20:47;15.20;99.90
60027;DHT22;45891;53.006;6.512;2023-07-31T03:23:13;15.20;99.90
60027;DHT22;45891;53.006;6.512;2023-07-31T03:25:54;15.20;99.90
60027;DHT22;45891;53.006;6.512;2023-07-31T03:28:21;15.20;99.90
60027;DHT22;45891;53.006;6.512;2023-07-31T03:30:47;15.30;99.90
60027;DHT22;45891;53.006;6.512;2023-07-31T03:33:13;15.30;99.90
60027;DHT22;45891;53.006;6.512;2023-07-31T03:35:39;15.30;99.90
60027;DHT22;45891;53.006;6.512;2023-07-31T03:38:05;15.30;99.90
60027;DHT22;45891;53.006;6.512;2023-07-31T03:40:31;15.30;99.90
60027;DHT22;45891;53.006;6.512;2023-07-31T03:42:57;15.30;99.90
60027;DHT22;45891;53.006;6.512;2023-07-31T03:45:23;15.30;99.90
60027;DHT22;45891;53.006;6.512;2023-07-31T03:47:49;15.30;99.90
60027;DHT22;45891;53.006;6.512;2023-07-31T03:50:15;15.30;99.90
60027;DHT22;45891;53.006;6.512;2023-07-31T03:52:41;15.30;99.90
60027;DHT22;45891;53.006;6.512;2023-07-31T03:55:08;15.20;99.90
60027;DHT22;45891;53.006;6.512;2023-07-31T03:57:34;15.30;99.90
60027;DHT22;45891;53.006;6.512;2023-07-31T04:00:00;15.30;99.90
60027;DHT22;45891;53.006;6.512;2023-07-31T04:02:26;15.20;99.90
60027;DHT22;45891;53.006;6.512;2023-07-31T04:04:52;15.30;99.90
60027;DHT22;45891;53.006;6.512;2023-07-31T04:07:18;15.20;99.90
60027;DHT22;45891;53.006;6.512;2023-07-31T04:09:44;15.30;99.90
60027;DHT22;45891;53.006;6.512;2023-07-31T04:12:10;15.20;99.90
60027;DHT22;45891;53.006;6.512;2023-07-31T04:14:37;15.20;99.90
60027;DHT22;45891;53.006;6.512;2023-07-31T04:17:03;15.30;99.90
60027;DHT22;45891;53.006;6.512;2023-07-31T04:19:29;15.20;99.90
60027;DHT22;45891;53.006;6.512;2023-07-31T04:21:55;15.20;99.90
60027;DHT22;45891;53.006;6.512;2023-07-31T04:24:21;15.20;99.90
60027;DHT22;45891;53.006;6.512;2023-07-31T04:26:51;15.20;99.90
60027;DHT22;45891;53.006;6.512;2023-07-31T04:29:18;15.20;99.90
60027;DHT22;45891;53.006;6.512;2023-07-31T04:31:44;15.20;99.90
60027;DHT22;45891;53.006;6.512;2023-07-31T04:34:10;15.20;99.90
60027;DHT22;45891;53.006;6.512;2023-07-31T04:36:37;15.20;99.90
60027;DHT22;45891;53.006;6.512;2023-07-31T04:39:03;15.20;99.90
60027;DHT22;45891;53.006;6.512;2023-07-31T04:41:30;15.20;99.90
60027;DHT22;45891;53.006;6.512;2023-07-31T04:43:56;15.20;99.90
60027;DHT22;45891;53.006;6.512;2023-07-31T04:46:22;15.20;99.90
60027;DHT22;45891;53.006;6.512;2023-07-31T04:48:48;15.20;99.90
60027;DHT22;45891;53.006;6.512;2023-07-31T04:51:14;15.30;99.90
60027;DHT22;45891;53.006;6.512;2023-07-31T04:53:40;15.30;99.90
60027;DHT22;45891;53.006;6.512;2023-07-31T04:56:06;15.30;99.90
60027;DHT22;45891;53.006;6.512;2023-07-31T04:58:32;15.30;99.90
60027;DHT22;45891;53.006;6.512;2023-07-31T05:00:59;15.30;99.90
60027;DHT22;45891;53.006;6.512;2023-07-31T05:03:25;15.30;99.90
60027;DHT22;45891;53.006;6.512;2023-07-31T05:05:51;15.30;99.90
60027;DHT22;45891;53.006;6.512;2023-07-31T05:08:17;15.40;99.90
60027;DHT22;45891;53.006;6.512;2023-07-31T05:10:46;15.40;99.90
60027;DHT22;45891;53.006;6.512;2023-07-31T05:13:12;15.50;99.90
60027;DHT22;45891;53.006;6.512;2023-07-31T05:15:38;15.50;99.90
60027;DHT22;45891;53.006;6.512;2023-07-31T05:18:04;15.50;99.90
60027;DHT22;45891;53.006;6.512;2023-07-31T05:20:30;15.60;99.90
60027;DHT22;45891;53.006;6.512;2023-07-31T05:22:56;15.60;99.90
60027;DHT22;45891;53.006;6.512;2023-07-31T05:25:22;15.60;99.90
60027;DHT22;45891;53.006;6.512;2023-07-31T05:27:48;15.70;99.90
60027;DHT22;45891;53.006;6.512;2023-07-31T05:30:15;15.70;99.90
60027;DHT22;45891;53.006;6.512;2023-07-31T05:32:41;15.80;99.90
60027;DHT22;45891;53.006;6.512;2023-07-31T05:35:07;15.80;99.90
60027;DHT22;45891;53.006;6.512;2023-07-31T05:37:33;15.80;99.90
60027;DHT22;45891;53.006;6.512;2023-07-31T05:39:59;15.80;99.90
60027;DHT22;45891;53.006;6.512;2023-07-31T05:42:25;15.90;99.90
60027;DHT22;45891;53.006;6.512;2023-07-31T05:44:51;15.90;99.90
60027;DHT22;45891;53.006;6.512;2023-07-31T05:47:17;16.00;99.90
60027;DHT22;45891;53.006;6.512;2023-07-31T05:49:44;16.00;99.90
60027;DHT22;45891;53.006;6.512;2023-07-31T05:52:10;16.10;99.90
60027;DHT22;45891;53.006;6.512;2023-07-31T05:54:36;16.10;99.90
60027;DHT22;45891;53.006;6.512;2023-07-31T05:57:02;16.10;99.90
60027;DHT22;45891;53.006;6.512;2023-07-31T05:59:28;16.20;99.90
60027;DHT22;45891;53.006;6.512;2023-07-31T06:01:55;16.10;99.90
60027;DHT22;45891;53.006;6.512;2023-07-31T06:04:21;16.20;99.90
60027;DHT22;45891;53.006;6.512;2023-07-31T06:06:48;16.10;99.90
60027;DHT22;45891;53.006;6.512;2023-07-31T06:09:14;16.20;99.90
60027;DHT22;45891;53.006;6.512;2023-07-31T06:11:40;16.20;99.90
60027;DHT22;45891;53.006;6.512;2023-07-31T06:14:06;16.30;99.90
60027;DHT22;45891;53.006;6.512;2023-07-31T06:16:32;16.30;99.90
60027;DHT22;45891;53.006;6.512;2023-07-31T06:18:58;16.40;99.90
60027;DHT22;45891;53.006;6.512;2023-07-31T06:21:24;16.40;99.90
60027;DHT22;45891;53.006;6.512;2023-07-31T06:23:50;16.40;99.90
60027;DHT22;45891;53.006;6.512;2023-07-31T06:26:16;16.40;99.90
60027;DHT22;45891;53.006;6.512;2023-07-31T06:28:42;16.40;99.90
60027;DHT22;45891;53.006;6.512;2023-07-31T06:31:09;16.40;99.90
60027;DHT22;45891;53.006;6.512;2023-07-31T06:33:35;16.40;99.90
60027;DHT22;45891;53.006;6.512;2023-07-31T06:36:01;16.40;99.90
60027;DHT22;45891;53.006;6.512;2023-07-31T06:38:27;16.40;99.90
60027;DHT22;45891;53.006;6.512;2023-07-31T06:40:54;16.50;99.90
60027;DHT22;45891;53.006;6.512;2023-07-31T06:43:20;16.60;99.90
60027;DHT22;45891;53.006;6.512;2023-07-31T06:45:46;16.60;99.90
60027;DHT22;45891;53.006;6.512;2023-07-31T06:48:15;16.60;99.90
60027;DHT22;45891;53.006;6.512;2023-07-31T06:50:42;16.60;99.90
60027;DHT22;45891;53.006;6.512;2023-07-31T06:53:08;16.70;99.90
60027;DHT22;45891;53.006;6.512;2023-07-31T06:55:34;16.70;99.90
60027;DHT22;45891;53.006;6.512;2023-07-31T06:58:00;16.60;99.90
60027;DHT22;45891;53.006;6.512;2023-07-31T07:00:27;16.60;99.90
60027;DHT22;45891;53.006;6.512;2023-07-31T07:02:53;16.60;99.90
60027;DHT22;45891;53.006;6.512;2023-07-31T07:05:19;16.60;99.90
60027;DHT22;45891;53.006;6.512;2023-07-31T07:07:45;16.50;99.90
60027;DHT22;45891;53.006;6.512;2023-07-31T07:10:11;16.50;99.90
60027;DHT22;45891;53.006;6.512;2023-07-31T07:12:38;16.50;99.90
60027;DHT22;45891;53.006;6.512;2023-07-31T07:15:04;16.50;99.90
60027;DHT22;45891;53.006;6.512;2023-07-31T07:17:30;16.50;99.90
60027;DHT22;45891;53.006;6.512;2023-07-31T07:20:00;16.50;99.90
60027;DHT22;45891;53.006;6.512;2023-07-31T07:22:27;16.50;99.90
60027;DHT22;45891;53.006;6.512;2023-07-31T07:24:53;16.50;99.90
60027;DHT22;45891;53.006;6.512;2023-07-31T07:27:20;16.50;99.90
60027;DHT22;45891;53.006;6.512;2023-07-31T07:29:46;16.40;99.90
60027;DHT22;45891;53.006;6.512;2023-07-31T07:32:13;16.50;99.90
60027;DHT22;45891;53.006;6.512;2023-07-31T07:34:39;16.40;99.90
60027;DHT22;45891;53.006;6.512;2023-07-31T07:37:05;16.50;99.90
60027;DHT22;45891;53.006;6.512;2023-07-31T07:39:31;16.50;99.90
60027;DHT22;45891;53.006;6.512;2023-07-31T07:41:57;16.50;99.90
60027;DHT22;45891;53.006;6.512;2023-07-31T07:44:23;16.30;99.90
60027;DHT22;45891;53.006;6.512;2023-07-31T07:46:50;16.40;99.90
60027;DHT22;45891;53.006;6.512;2023-07-31T07:49:16;16.30;99.90
60027;DHT22;45891;53.006;6.512;2023-07-31T07:51:42;16.30;99.90
60027;DHT22;45891;53.006;6.512;2023-07-31T07:54:08;16.30;99.90
60027;DHT22;45891;53.006;6.512;2023-07-31T07:56:34;16.40;99.90
60027;DHT22;45891;53.006;6.512;2023-07-31T07:59:02;16.40;99.90
60027;DHT22;45891;53.006;6.512;2023-07-31T08:01:28;16.40;99.90
60027;DHT22;45891;53.006;6.512;2023-07-31T08:03:54;16.40;99.90
60027;DHT22;45891;53.006;6.512;2023-07-31T08:06:20;16.30;99.90
60027;DHT22;45891;53.006;6.512;2023-07-31T08:08:46;16.40;99.90
60027;DHT22;45891;53.006;6.512;2023-07-31T08:11:13;16.40;99.90
60027;DHT22;45891;53.006;6.512;2023-07-31T08:13:39;16.40;99.90
60027;DHT22;45891;53.006;6.512;2023-07-31T08:16:05;16.40;99.90
60027;DHT22;45891;53.006;6.512;2023-07-31T08:18:31;16.40;99.90
60027;DHT22;45891;53.006;6.512;2023-07-31T08:20:58;16.50;99.90
60027;DHT22;45891;53.006;6.512;2023-07-31T08:23:25;16.50;99.90
60027;DHT22;45891;53.006;6.512;2023-07-31T08:25:51;16.60;99.90
60027;DHT22;45891;53.006;6.512;2023-07-31T08:28:17;16.70;99.90
60027;DHT22;45891;53.006;6.512;2023-07-31T08:30:43;16.70;99.90
60027;DHT22;45891;53.006;6.512;2023-07-31T08:33:09;16.70;99.90
60027;DHT22;45891;53.006;6.512;2023-07-31T08:35:36;16.80;99.90
60027;DHT22;45891;53.006;6.512;2023-07-31T08:38:02;16.90;99.90
60027;DHT22;45891;53.006;6.512;2023-07-31T08:40:28;16.90;99.90
60027;DHT22;45891;53.006;6.512;2023-07-31T08:42:55;16.90;99.90
60027;DHT22;45891;53.006;6.512;2023-07-31T08:45:28;17.00;99.90
60027;DHT22;45891;53.006;6.512;2023-07-31T08:47:55;17.00;99.90
60027;DHT22;45891;53.006;6.512;2023-07-31T08:50:22;17.10;99.90
60027;DHT22;45891;53.006;6.512;2023-07-31T08:52:50;17.10;99.90
60027;DHT22;45891;53.006;6.512;2023-07-31T08:55:17;17.10;99.90
60027;DHT22;45891;53.006;6.512;2023-07-31T08:57:43;17.20;99.90
60027;DHT22;45891;53.006;6.512;2023-07-31T09:00:10;17.40;99.90
60027;DHT22;45891;53.006;6.512;2023-07-31T09:02:46;17.50;99.90
60027;DHT22;45891;53.006;6.512;2023-07-31T09:05:14;17.50;99.90
60027;DHT22;45891;53.006;6.512;2023-07-31T09:07:44;17.50;99.90
60027;DHT22;45891;53.006;6.512;2023-07-31T09:10:12;17.60;99.90
60027;DHT22;45891;53.006;6.512;2023-07-31T09:12:39;17.60;99.90
60027;DHT22;45891;53.006;6.512;2023-07-31T09:15:05;17.60;99.90
60027;DHT22;45891;53.006;6.512;2023-07-31T09:17:33;17.70;99.90
60027;DHT22;45891;53.006;6.512;2023-07-31T09:20:19;17.60;99.90
60027;DHT22;45891;53.006;6.512;2023-07-31T09:22:47;17.60;99.90
60027;DHT22;45891;53.006;6.512;2023-07-31T09:25:18;17.60;99.90
60027;DHT22;45891;53.006;6.512;2023-07-31T09:30:17;17.50;99.90
60027;DHT22;45891;53.006;6.512;2023-07-31T09:32:45;17.50;99.90
60027;DHT22;45891;53.006;6.512;2023-07-31T09:35:31;17.50;99.90
60027;DHT22;45891;53.006;6.512;2023-07-31T09:38:05;17.60;99.90
60027;DHT22;45891;53.006;6.512;2023-07-31T09:40:35;17.60;99.90
60027;DHT22;45891;53.006;6.512;2023-07-31T09:43:04;17.50;99.90
60027;DHT22;45891;53.006;6.512;2023-07-31T09:45:34;17.50;99.90
60027;DHT22;45891;53.006;6.512;2023-07-31T09:48:02;17.50;99.90
60027;DHT22;45891;53.006;6.512;2023-07-31T09:50:29;17.60;99.90
60027;DHT22;45891;53.006;6.512;2023-07-31T09:52:55;17.60;99.90
60027;DHT22;45891;53.006;6.512;2023-07-31T09:55:21;17.60;99.90
60027;DHT22;45891;53.006;6.512;2023-07-31T09:57:48;17.60;99.90
60027;DHT22;45891;53.006;6.512;2023-07-31T10:00:17;17.60;99.90
60027;DHT22;45891;53.006;6.512;2023-07-31T10:02:47;17.70;99.90
60027;DHT22;45891;53.006;6.512;2023-07-31T10:05:14;17.80;99.90
60027;DHT22;45891;53.006;6.512;2023-07-31T10:07:54;17.70;99.90
60027;DHT22;45891;53.006;6.512;2023-07-31T10:10:22;17.60;99.90
60027;DHT22;45891;53.006;6.512;2023-07-31T10:12:49;17.80;99.90
60027;DHT22;45891;53.006;6.512;2023-07-31T10:15:16;18.00;99.90
60027;DHT22;45891;53.006;6.512;2023-07-31T10:17:42;18.10;99.90
60027;DHT22;45891;53.006;6.512;2023-07-31T10:20:09;18.20;99.90
60027;DHT22;45891;53.006;6.512;2023-07-31T10:22:36;18.30;99.90
60027;DHT22;45891;53.006;6.512;2023-07-31T10:25:03;18.30;99.90
60027;DHT22;45891;53.006;6.512;2023-07-31T10:27:29;18.40;99.90
60027;DHT22;45891;53.006;6.512;2023-07-31T10:29:56;18.50;99.90
60027;DHT22;45891;53.006;6.512;2023-07-31T10:32:23;18.50;99.90
60027;DHT22;45891;53.006;6.512;2023-07-31T10:34:51;18.70;99.90
60027;DHT22;45891;53.006;6.512;2023-07-31T10:37:37;18.90;99.90
60027;DHT22;45891;53.006;6.512;2023-07-31T10:40:05;19.10;99.90
60027;DHT22;45891;53.006;6.512;2023-07-31T10:42:36;19.30;99.90
60027;DHT22;45891;53.006;6.512;2023-07-31T10:45:05;19.30;99.90
60027;DHT22;45891;53.006;6.512;2023-07-31T10:47:37;19.40;99.90
60027;DHT22;45891;53.006;6.512;2023-07-31T10:50:18;19.40;99.90
60027;DHT22;45891;53.006;6.512;2023-07-31T10:52:53;19.20;99.90
60027;DHT22;45891;53.006;6.512;2023-07-31T10:55:28;19.40;99.90
60027;DHT22;45891;53.006;6.512;2023-07-31T10:57:56;19.40;99.90
60027;DHT22;45891;53.006;6.512;2023-07-31T11:00:27;19.30;99.90
60027;DHT22;45891;53.006;6.512;2023-07-31T11:05:46;19.40;99.90
60027;DHT22;45891;53.006;6.512;2023-07-31T11:08:16;19.70;99.90
60027;DHT22;45891;53.006;6.512;2023-07-31T11:10:43;19.90;99.90
60027;DHT22;45891;53.006;6.512;2023-07-31T11:13:10;20.10;99.90
60027;DHT22;45891;53.006;6.512;2023-07-31T11:15:36;19.90;99.90
60027;DHT22;45891;53.006;6.512;2023-07-31T11:18:03;19.80;99.90
60027;DHT22;45891;53.006;6.512;2023-07-31T11:20:35;19.70;99.90
60027;DHT22;45891;53.006;6.512;2023-07-31T11:23:02;19.90;99.90
60027;DHT22;45891;53.006;6.512;2023-07-31T11:25:30;19.60;99.90
60027;DHT22;45891;53.006;6.512;2023-07-31T11:28:03;19.40;99.90
60027;DHT22;45891;53.006;6.512;2023-07-31T11:30:30;19.30;99.90
60027;DHT22;45891;53.006;6.512;2023-07-31T11:32:56;19.20;99.90
60027;DHT22;45891;53.006;6.512;2023-07-31T11:35:22;18.80;99.90
60027;DHT22;45891;53.006;6.512;2023-07-31T11:37:48;18.60;99.90
60027;DHT22;45891;53.006;6.512;2023-07-31T11:40:15;18.40;99.90
60027;DHT22;45891;53.006;6.512;2023-07-31T11:42:41;18.40;99.90
60027;DHT22;45891;53.006;6.512;2023-07-31T11:45:08;18.40;99.90
60027;DHT22;45891;53.006;6.512;2023-07-31T11:47:37;18.50;99.90
60027;DHT22;45891;53.006;6.512;2023-07-31T11:50:05;18.70;99.90
60027;DHT22;45891;53.006;6.512;2023-07-31T11:52:40;18.90;99.90
60027;DHT22;45891;53.006;6.512;2023-07-31T11:55:08;19.10;99.90
60027;DHT22;45891;53.006;6.512;2023-07-31T11:57:38;19.20;99.90
60027;DHT22;45891;53.006;6.512;2023-07-31T12:00:06;19.30;99.90
60027;DHT22;45891;53.006;6.512;2023-07-31T12:02:34;19.40;99.90
60027;DHT22;45891;53.006;6.512;2023-07-31T12:05:00;19.30;99.90
60027;DHT22;45891;53.006;6.512;2023-07-31T12:07:27;19.30;99.90
60027;DHT22;45891;53.006;6.512;2023-07-31T12:09:56;19.20;99.90
60027;DHT22;45891;53.006;6.512;2023-07-31T12:12:25;19.30;99.90
60027;DHT22;45891;53.006;6.512;2023-07-31T12:14:52;19.20;99.90
60027;DHT22;45891;53.006;6.512;2023-07-31T12:17:19;19.10;99.90
60027;DHT22;45891;53.006;6.512;2023-07-31T12:19:48;19.00;99.90
60027;DHT22;45891;53.006;6.512;2023-07-31T12:22:15;19.00;99.90
60027;DHT22;45891;53.006;6.512;2023-07-31T12:24:43;18.90;99.90
60027;DHT22;45891;53.006;6.512;2023-07-31T12:27:14;18.90;99.90
60027;DHT22;45891;53.006;6.512;2023-07-31T12:29:42;18.90;99.90
60027;DHT22;45891;53.006;6.512;2023-07-31T12:32:23;18.80;99.90
60027;DHT22;45891;53.006;6.512;2023-07-31T12:34:51;18.70;99.90
60027;DHT22;45891;53.006;6.512;2023-07-31T12:37:17;18.70;99.90
60027;DHT22;45891;53.006;6.512;2023-07-31T12:39:43;18.60;99.90
60027;DHT22;45891;53.006;6.512;2023-07-31T12:42:09;18.60;99.90
60027;DHT22;45891;53.006;6.512;2023-07-31T12:44:35;18.60;99.90
60027;DHT22;45891;53.006;6.512;2023-07-31T12:47:01;18.60;99.90
60027;DHT22;45891;53.006;6.512;2023-07-31T12:49:28;18.60;99.90
60027;DHT22;45891;53.006;6.512;2023-07-31T12:51:54;18.60;99.90
60027;DHT22;45891;53.006;6.512;2023-07-31T12:54:20;18.60;99.90
60027;DHT22;45891;53.006;6.512;2023-07-31T12:56:46;18.50;99.90
60027;DHT22;45891;53.006;6.512;2023-07-31T12:59:12;18.60;99.90
60027;DHT22;45891;53.006;6.512;2023-07-31T13:01:38;18.70;99.90
60027;DHT22;45891;53.006;6.512;2023-07-31T13:04:04;18.90;99.90
60027;DHT22;45891;53.006;6.512;2023-07-31T13:06:30;19.00;99.90
60027;DHT22;45891;53.006;6.512;2023-07-31T13:08:56;19.00;99.90
60027;DHT22;45891;53.006;6.512;2023-07-31T13:11:22;19.10;99.90
60027;DHT22;45891;53.006;6.512;2023-07-31T13:13:48;19.20;99.90
60027;DHT22;45891;53.006;6.512;2023-07-31T13:16:14;19.30;99.90
60027;DHT22;45891;53.006;6.512;2023-07-31T13:18:40;19.40;99.90
60027;DHT22;45891;53.006;6.512;2023-07-31T13:21:06;19.40;99.90
60027;DHT22;45891;53.006;6.512;2023-07-31T13:23:33;19.40;99.90
60027;DHT22;45891;53.006;6.512;2023-07-31T13:25:59;19.40;99.90
60027;DHT22;45891;53.006;6.512;2023-07-31T13:28:25;19.40;99.90
60027;DHT22;45891;53.006;6.512;2023-07-31T13:30:51;19.40;99.90
60027;DHT22;45891;53.006;6.512;2023-07-31T13:33:17;19.40;99.90
60027;DHT22;45891;53.006;6.512;2023-07-31T13:35:43;19.40;99.90
60027;DHT22;45891;53.006;6.512;2023-07-31T13:38:09;19.30;99.90
60027;DHT22;45891;53.006;6.512;2023-07-31T13:40:35;19.30;99.90
60027;DHT22;45891;53.006;6.512;2023-07-31T13:43:01;19.30;99.90
60027;DHT22;45891;53.006;6.512;2023-07-31T13:45:28;19.40;99.90
60027;DHT22;45891;53.006;6.512;2023-07-31T13:47:54;19.50;99.90
60027;DHT22;45891;53.006;6.512;2023-07-31T13:50:20;19.70;99.90
60027;DHT22;45891;53.006;6.512;2023-07-31T13:52:48;19.80;99.90
60027;DHT22;45891;53.006;6.512;2023-07-31T13:55:14;19.70;99.90
60027;DHT22;45891;53.006;6.512;2023-07-31T13:57:40;19.80;99.90
60027;DHT22;45891;53.006;6.512;2023-07-31T14:00:07;19.80;99.90
60027;DHT22;45891;53.006;6.512;2023-07-31T14:02:34;19.90;99.90
60027;DHT22;45891;53.006;6.512;2023-07-31T14:05:00;20.10;99.90
60027;DHT22;45891;53.006;6.512;2023-07-31T14:07:26;20.10;99.90
60027;DHT22;45891;53.006;6.512;2023-07-31T14:09:52;20.20;99.90
60027;DHT22;45891;53.006;6.512;2023-07-31T14:12:18;20.30;99.90
60027;DHT22;45891;53.006;6.512;2023-07-31T14:14:44;20.30;99.90
60027;DHT22;45891;53.006;6.512;2023-07-31T14:17:10;20.40;99.90
60027;DHT22;45891;53.006;6.512;2023-07-31T14:19:36;20.30;99.90
60027;DHT22;45891;53.006;6.512;2023-07-31T14:22:02;20.20;99.90
60027;DHT22;45891;53.006;6.512;2023-07-31T14:24:28;20.30;99.90
60027;DHT22;45891;53.006;6.512;2023-07-31T14:26:55;20.20;99.90
60027;DHT22;45891;53.006;6.512;2023-07-31T14:29:21;20.20;99.90
60027;DHT22;45891;53.006;6.512;2023-07-31T14:31:47;20.10;99.90
60027;DHT22;45891;53.006;6.512;2023-07-31T14:34:13;20.10;99.90
60027;DHT22;45891;53.006;6.512;2023-07-31T14:36:40;20.10;99.90
60027;DHT22;45891;53.006;6.512;2023-07-31T14:39:06;20.10;99.90
60027;DHT22;45891;53.006;6.512;2023-07-31T14:41:32;20.10;99.90
60027;DHT22;45891;53.006;6.512;2023-07-31T14:43:58;20.10;99.90
60027;DHT22;45891;53.006;6.512;2023-07-31T14:46:25;20.10;99.90
60027;DHT22;45891;53.006;6.512;2023-07-31T14:48:51;20.00;99.90
60027;DHT22;45891;53.006;6.512;2023-07-31T14:51:17;20.00;99.90
60027;DHT22;45891;53.006;6.512;2023-07-31T14:53:43;20.00;99.90
60027;DHT22;45891;53.006;6.512;2023-07-31T14:56:09;20.00;99.90
60027;DHT22;45891;53.006;6.512;2023-07-31T14:58:36;19.90;99.90
60027;DHT22;45891;53.006;6.512;2023-07-31T15:01:02;19.90;99.90
60027;DHT22;45891;53.006;6.512;2023-07-31T15:03:28;19.90;99.90
60027;DHT22;45891;53.006;6.512;2023-07-31T15:05:54;19.90;99.90
60027;DHT22;45891;53.006;6.512;2023-07-31T15:08:21;19.90;99.90
60027;DHT22;45891;53.006;6.512;2023-07-31T15:10:47;19.80;99.90
60027;DHT22;45891;53.006;6.512;2023-07-31T15:13:13;19.80;99.90
60027;DHT22;45891;53.006;6.512;2023-07-31T15:15:39;19.70;99.90
60027;DHT22;45891;53.006;6.512;2023-07-31T15:18:05;19.80;99.90
60027;DHT22;45891;53.006;6.512;2023-07-31T15:20:31;19.60;99.90
60027;DHT22;45891;53.006;6.512;2023-07-31T15:22:58;19.60;99.90
60027;DHT22;45891;53.006;6.512;2023-07-31T15:25:24;19.60;99.90
60027;DHT22;45891;53.006;6.512;2023-07-31T15:27:50;19.60;99.90
60027;DHT22;45891;53.006;6.512;2023-07-31T15:30:16;19.60;99.90
60027;DHT22;45891;53.006;6.512;2023-07-31T15:32:43;19.60;99.90
60027;DHT22;45891;53.006;6.512;2023-07-31T15:35:11;19.50;99.90
60027;DHT22;45891;53.006;6.512;2023-07-31T15:37:37;19.60;99.90
60027;DHT22;45891;53.006;6.512;2023-07-31T15:40:03;19.60;99.90